NCAR-RAP Real-Time Weather Data

Output produced by METARs form (06 July 2020  11:03 UTC)
found at http://weather.rap.ucar.edu/surface/
 
Conditions at: KPZQ observed 06 July 2020  10:55 UTC
Temperature: 19.2°C (67°F)
Dewpoint: 16.6°C (62°F) [RH = 85%]
Pressure (altimeter): 30.01 inches Hg (1016.3 mb)
Winds: calm
Visibility: 3 miles (5 km)
Ceiling: at least 12,000 feet AGL
Clouds: sky clear below 12,000 feet AGL
Present Weather: HZ  (haze)
KPZQ 061055Z AUTO 00000KT 3SM HZ CLR 19/17 A3001 RMK AO2 T01920166

Conditions at: KPZQ observed 06 July 2020  10:36 UTC
Temperature: 19.0°C (66°F)
Dewpoint: 16.2°C (61°F) [RH = 84%]
Pressure (altimeter): 30.00 inches Hg (1016.0 mb)
Winds: calm
Visibility: 10 or more miles (16+ km)
Ceiling: at least 12,000 feet AGL
Clouds: sky clear below 12,000 feet AGL
Present Weather: automated observation with no human augmentation;
there may or may not be significant weather present at this time
KPZQ 061036Z AUTO 00000KT 10SM CLR 19/16 A3000 RMK AO2 T01900162

Conditions at: KPZQ observed 06 July 2020  10:35 UTC
Temperature: 19.0°C (66°F)
Dewpoint: 16.2°C (61°F) [RH = 84%]
Pressure (altimeter): 30.00 inches Hg (1016.0 mb)
Winds: calm
Visibility: 10 or more miles (16+ km)
Ceiling: at least 12,000 feet AGL
Clouds: sky clear below 12,000 feet AGL
Present Weather: automated observation with no human augmentation;
there may or may not be significant weather present at this time
KPZQ 061035Z AUTO 00000KT 10SM CLR 19/16 A3000 RMK AO2 T01900162

Conditions at: KPZQ observed 06 July 2020  10:15 UTC
Temperature: 18.5°C (65°F)
Dewpoint: 16.3°C (61°F) [RH = 87%]
Pressure (altimeter): 30.00 inches Hg (1016.0 mb)
Winds: from the ESE (120 degrees) at 3 MPH (3 knots; 1.6 m/s)
Visibility: 10 or more miles (16+ km)
Ceiling: at least 12,000 feet AGL
Clouds: sky clear below 12,000 feet AGL
Present Weather: automated observation with no human augmentation;
there may or may not be significant weather present at this time
KPZQ 061015Z AUTO 12003KT 10SM CLR 19/16 A3000 RMK AO2 T01850163

Conditions at: KPZQ observed 06 July 2020  09:56 UTC
Temperature: 17.5°C (64°F)
Dewpoint: 15.4°C (60°F) [RH = 87%]
Pressure (altimeter): 30.00 inches Hg (1016.0 mb)
Winds: calm
Visibility: 2.50 miles (4.02 km)
Ceiling: at least 12,000 feet AGL
Clouds: sky clear below 12,000 feet AGL
Present Weather: BR  (mist)
KPZQ 060956Z AUTO 00000KT 2 1/2SM BR CLR 18/15 A3000 RMK AO2 T01750154

Conditions at: KPZQ observed 06 July 2020  09:55 UTC
Temperature: 17.5°C (64°F)
Dewpoint: 15.3°C (60°F) [RH = 87%]
Pressure (altimeter): 30.00 inches Hg (1016.0 mb)
Winds: calm
Visibility: 2.50 miles (4.02 km)
Ceiling: at least 12,000 feet AGL
Clouds: sky clear below 12,000 feet AGL
Present Weather: BR  (mist)
KPZQ 060955Z AUTO 00000KT 2 1/2SM BR CLR 18/15 A3000 RMK AO2 T01750153

Conditions at: KPZQ observed 06 July 2020  09:35 UTC
Temperature: 18.2°C (65°F)
Dewpoint: 15.9°C (61°F) [RH = 86%]
Pressure (altimeter): 30.00 inches Hg (1016.0 mb)
Winds: calm
Visibility: 10 or more miles (16+ km)
Ceiling: at least 12,000 feet AGL
Clouds: sky clear below 12,000 feet AGL
Present Weather: automated observation with no human augmentation;
there may or may not be significant weather present at this time
KPZQ 060935Z AUTO 00000KT 10SM CLR 18/16 A3000 RMK AO2 T01820159

Conditions at: KPZQ observed 06 July 2020  09:16 UTC
Temperature: 18.5°C (65°F)
Dewpoint: 16.1°C (61°F) [RH = 86%]
Pressure (altimeter): 30.00 inches Hg (1016.0 mb)
Winds: calm
Visibility: 10 or more miles (16+ km)
Ceiling: at least 12,000 feet AGL
Clouds: sky clear below 12,000 feet AGL
Present Weather: automated observation with no human augmentation;
there may or may not be significant weather present at this time
KPZQ 060916Z AUTO 00000KT 10SM CLR 19/16 A3000 RMK AO2 T01850161

Conditions at: KPZQ observed 06 July 2020  09:15 UTC
Temperature: 18.4°C (65°F)
Dewpoint: 16.0°C (61°F) [RH = 86%]
Pressure (altimeter): 30.00 inches Hg (1016.0 mb)
Winds: calm
Visibility: 10 or more miles (16+ km)
Ceiling: at least 12,000 feet AGL
Clouds: sky clear below 12,000 feet AGL
Present Weather: automated observation with no human augmentation;
there may or may not be significant weather present at this time
KPZQ 060915Z AUTO 00000KT 10SM CLR 18/16 A3000 RMK AO2 T01840160

Conditions at: KPZQ observed 06 July 2020  08:55 UTC
Temperature: 20.2°C (68°F)
Dewpoint: 16.3°C (61°F) [RH = 78%]
Pressure (altimeter): 30.00 inches Hg (1016.0 mb)
Winds: calm
Visibility: 10 or more miles (16+ km)
Ceiling: at least 12,000 feet AGL
Clouds: sky clear below 12,000 feet AGL
Present Weather: automated observation with no human augmentation;
there may or may not be significant weather present at this time
KPZQ 060855Z AUTO 00000KT 10SM CLR 20/16 A3000 RMK AO2 T02020163

Conditions at: KPZQ observed 06 July 2020  08:35 UTC
Temperature: 20.0°C (68°F)
Dewpoint: 16.6°C (62°F) [RH = 81%]
Pressure (altimeter): 30.00 inches Hg (1016.0 mb)
Winds: calm
Visibility: 10 or more miles (16+ km)
Ceiling: at least 12,000 feet AGL
Clouds: sky clear below 12,000 feet AGL
Present Weather: automated observation with no human augmentation;
there may or may not be significant weather present at this time
KPZQ 060835Z AUTO 00000KT 10SM CLR 20/17 A3000 RMK AO2 T02000166

Conditions at: KPZQ observed 06 July 2020  08:16 UTC
Temperature: 19.4°C (67°F)
Dewpoint: 16.8°C (62°F) [RH = 85%]
Pressure (altimeter): 30.01 inches Hg (1016.3 mb)
Winds: calm
Visibility: 10 or more miles (16+ km)
Ceiling: at least 12,000 feet AGL
Clouds: sky clear below 12,000 feet AGL
Present Weather: automated observation with no human augmentation;
there may or may not be significant weather present at this time
KPZQ 060816Z AUTO 00000KT 10SM CLR 19/17 A3001 RMK AO2 T01940168

Conditions at: KPZQ observed 06 July 2020  08:15 UTC
Temperature: 19.5°C (67°F)
Dewpoint: 16.8°C (62°F) [RH = 84%]
Pressure (altimeter): 30.01 inches Hg (1016.3 mb)
Winds: calm
Visibility: 10 or more miles (16+ km)
Ceiling: at least 12,000 feet AGL
Clouds: sky clear below 12,000 feet AGL
Present Weather: automated observation with no human augmentation;
there may or may not be significant weather present at this time
KPZQ 060815Z AUTO 00000KT 10SM CLR 20/17 A3001 RMK AO2 T01950168

Conditions at: KPZQ observed 06 July 2020  07:55 UTC
Temperature: 19.1°C (66°F)
Dewpoint: 17.0°C (63°F) [RH = 88%]
Pressure (altimeter): 30.01 inches Hg (1016.3 mb)
Winds: calm
Visibility: 10 or more miles (16+ km)
Ceiling: at least 12,000 feet AGL
Clouds: sky clear below 12,000 feet AGL
Present Weather: automated observation with no human augmentation;
there may or may not be significant weather present at this time
KPZQ 060755Z AUTO 00000KT 10SM CLR 19/17 A3001 RMK AO2 T01910170

Conditions at: KPZQ observed 06 July 2020  07:35 UTC
Temperature: 18.8°C (66°F)
Dewpoint: 16.5°C (62°F) [RH = 87%]
Pressure (altimeter): 30.01 inches Hg (1016.3 mb)
Winds: calm
Visibility: 10 or more miles (16+ km)
Ceiling: at least 12,000 feet AGL
Clouds: sky clear below 12,000 feet AGL
Present Weather: automated observation with no human augmentation;
there may or may not be significant weather present at this time
KPZQ 060735Z AUTO 00000KT 10SM CLR 19/17 A3001 RMK AO2 T01880165

Conditions at: KPZQ observed 06 July 2020  07:16 UTC
Temperature: 18.8°C (66°F)
Dewpoint: 16.5°C (62°F) [RH = 87%]
Pressure (altimeter): 30.02 inches Hg (1016.7 mb)
Winds: calm
Visibility: 10 or more miles (16+ km)
Ceiling: at least 12,000 feet AGL
Clouds: sky clear below 12,000 feet AGL
Present Weather: automated observation with no human augmentation;
there may or may not be significant weather present at this time
KPZQ 060716Z AUTO 00000KT 10SM CLR 19/17 A3002 RMK AO2 T01880165

Conditions at: KPZQ observed 06 July 2020  07:15 UTC
Temperature: 18.8°C (66°F)
Dewpoint: 16.4°C (62°F) [RH = 86%]
Pressure (altimeter): 30.02 inches Hg (1016.7 mb)
Winds: calm
Visibility: 10 or more miles (16+ km)
Ceiling: at least 12,000 feet AGL
Clouds: sky clear below 12,000 feet AGL
Present Weather: automated observation with no human augmentation;
there may or may not be significant weather present at this time
KPZQ 060715Z AUTO 00000KT 10SM CLR 19/16 A3002 RMK AO2 T01880164

Conditions at: KPZQ observed 06 July 2020  06:55 UTC
Temperature: 19.6°C (67°F)
Dewpoint: 16.9°C (62°F) [RH = 84%]
Pressure (altimeter): 30.02 inches Hg (1016.7 mb)
Winds: calm
Visibility: 10 or more miles (16+ km)
Ceiling: at least 12,000 feet AGL
Clouds: sky clear below 12,000 feet AGL
Present Weather: automated observation with no human augmentation;
there may or may not be significant weather present at this time
KPZQ 060655Z AUTO 00000KT 10SM CLR 20/17 A3002 RMK AO2 T01960169

Conditions at: KPZQ observed 06 July 2020  06:35 UTC
Temperature: 20.1°C (68°F)
Dewpoint: 17.6°C (64°F) [RH = 86%]
Pressure (altimeter): 30.02 inches Hg (1016.7 mb)
Winds: from the S (180 degrees) at 3 MPH (3 knots; 1.6 m/s)
Visibility: 10 or more miles (16+ km)
Ceiling: at least 12,000 feet AGL
Clouds: sky clear below 12,000 feet AGL
Present Weather: automated observation with no human augmentation;
there may or may not be significant weather present at this time
KPZQ 060635Z AUTO 18003KT 10SM CLR 20/18 A3002 RMK AO2 T02010176

Conditions at: KPZQ observed 06 July 2020  06:15 UTC
Temperature: 19.3°C (67°F)
Dewpoint: 16.6°C (62°F) [RH = 84%]
Pressure (altimeter): 30.01 inches Hg (1016.3 mb)
Winds: calm
Visibility: 10 or more miles (16+ km)
Ceiling: at least 12,000 feet AGL
Clouds: sky clear below 12,000 feet AGL
Present Weather: automated observation with no human augmentation;
there may or may not be significant weather present at this time
KPZQ 060615Z AUTO 00000KT 10SM CLR 19/17 A3001 RMK AO2 T01930166

Conditions at: KPZQ observed 06 July 2020  05:55 UTC
Temperature: 19.8°C (68°F)
Dewpoint: 16.9°C (62°F) [RH = 83%]
Pressure (altimeter): 30.02 inches Hg (1016.7 mb)
Winds: calm
Visibility: 10 or more miles (16+ km)
Ceiling: at least 12,000 feet AGL
Clouds: sky clear below 12,000 feet AGL
Present Weather: automated observation with no human augmentation;
there may or may not be significant weather present at this time
KPZQ 060555Z AUTO 00000KT 10SM CLR 20/17 A3002 RMK AO2 T01980169 10280 20196

Conditions at: KPZQ observed 06 July 2020  05:36 UTC
Temperature: 20.8°C (69°F)
Dewpoint: 17.3°C (63°F) [RH = 80%]
Pressure (altimeter): 30.01 inches Hg (1016.3 mb)
Winds: from the SSW (210 degrees) at 5 MPH (4 knots; 2.1 m/s)
Visibility: 10 or more miles (16+ km)
Ceiling: at least 12,000 feet AGL
Clouds: sky clear below 12,000 feet AGL
Present Weather: automated observation with no human augmentation;
there may or may not be significant weather present at this time
KPZQ 060536Z AUTO 21004KT 10SM CLR 21/17 A3001 RMK AO2 T02080173

Conditions at: KPZQ observed 06 July 2020  05:35 UTC
Temperature: 20.8°C (69°F)
Dewpoint: 17.3°C (63°F) [RH = 80%]
Pressure (altimeter): 30.01 inches Hg (1016.3 mb)
Winds: from the SSW (210 degrees) at 5 MPH (4 knots; 2.1 m/s)
Visibility: 10 or more miles (16+ km)
Ceiling: at least 12,000 feet AGL
Clouds: sky clear below 12,000 feet AGL
Present Weather: automated observation with no human augmentation;
there may or may not be significant weather present at this time
KPZQ 060535Z AUTO 21004KT 10SM CLR 21/17 A3001 RMK AO2 T02080173

Conditions at: KPZQ observed 06 July 2020  05:15 UTC
Temperature: 21.0°C (70°F)
Dewpoint: 16.7°C (62°F) [RH = 76%]
Pressure (altimeter): 30.02 inches Hg (1016.7 mb)
Winds: calm
Visibility: 10 or more miles (16+ km)
Ceiling: at least 12,000 feet AGL
Clouds: sky clear below 12,000 feet AGL
Present Weather: automated observation with no human augmentation;
there may or may not be significant weather present at this time
KPZQ 060515Z AUTO 00000KT 10SM CLR 21/17 A3002 RMK AO2 T02100167

Conditions at: KPZQ observed 06 July 2020  04:55 UTC
Temperature: 22.0°C (72°F)
Dewpoint: 17.0°C (63°F) [RH = 73%]
Pressure (altimeter): 30.02 inches Hg (1016.7 mb)
Winds: from the S (180 degrees) at 3 MPH (3 knots; 1.6 m/s)
Visibility: 10 or more miles (16+ km)
Ceiling: at least 12,000 feet AGL
Clouds: sky clear below 12,000 feet AGL
Present Weather: automated observation with no human augmentation;
there may or may not be significant weather present at this time
KPZQ 060455Z AUTO 18003KT 10SM CLR 22/17 A3002 RMK AO2 T02200170

Conditions at: KPZQ observed 06 July 2020  04:35 UTC
Temperature: 22.6°C (73°F)
Dewpoint: 16.9°C (62°F) [RH = 70%]
Pressure (altimeter): 30.01 inches Hg (1016.3 mb)
Winds: from the S (170 degrees) at 3 MPH (3 knots; 1.6 m/s)
Visibility: 10 or more miles (16+ km)
Ceiling: at least 12,000 feet AGL
Clouds: sky clear below 12,000 feet AGL
Present Weather: automated observation with no human augmentation;
there may or may not be significant weather present at this time
KPZQ 060435Z AUTO 17003KT 10SM CLR 23/17 A3001 RMK AO2 T02260169

Conditions at: KPZQ observed 06 July 2020  04:15 UTC
Temperature: 22.5°C (72°F)
Dewpoint: 16.6°C (62°F) [RH = 69%]
Pressure (altimeter): 30.01 inches Hg (1016.3 mb)
Winds: from the SE (140 degrees) at 5 MPH (4 knots; 2.1 m/s)
Visibility: 10 or more miles (16+ km)
Ceiling: at least 12,000 feet AGL
Clouds: sky clear below 12,000 feet AGL
Present Weather: automated observation with no human augmentation;
there may or may not be significant weather present at this time
KPZQ 060415Z AUTO 14004KT 10SM CLR 23/17 A3001 RMK AO2 T02250166

Conditions at: KPZQ observed 06 July 2020  03:55 UTC
Temperature: 22.0°C (72°F)
Dewpoint: 16.5°C (62°F) [RH = 71%]
Pressure (altimeter): 30.01 inches Hg (1016.3 mb)
Winds: from the S (190 degrees) at 5 MPH (4 knots; 2.1 m/s)
Visibility: 10 or more miles (16+ km)
Ceiling: at least 12,000 feet AGL
Clouds: sky clear below 12,000 feet AGL
Present Weather: automated observation with no human augmentation;
there may or may not be significant weather present at this time
KPZQ 060355Z AUTO 19004KT 10SM CLR 22/17 A3001 RMK AO2 T02200165 402900183

Conditions at: KPZQ observed 06 July 2020  03:35 UTC
Temperature: 21.6°C (71°F)
Dewpoint: 17.5°C (64°F) [RH = 78%]
Pressure (altimeter): 30.01 inches Hg (1016.3 mb)
Winds: calm
Visibility: 10 or more miles (16+ km)
Ceiling: at least 12,000 feet AGL
Clouds: sky clear below 12,000 feet AGL
Present Weather: automated observation with no human augmentation;
there may or may not be significant weather present at this time
KPZQ 060335Z AUTO 00000KT 10SM CLR 22/18 A3001 RMK AO2 T02160175

Conditions at: KPZQ observed 06 July 2020  03:15 UTC
Temperature: 19.8°C (68°F)
Dewpoint: 16.2°C (61°F) [RH = 80%]
Pressure (altimeter): 30.00 inches Hg (1016.0 mb)
Winds: from the SW (230 degrees) at 3 MPH (3 knots; 1.6 m/s)
Visibility: 10 or more miles (16+ km)
Ceiling: at least 12,000 feet AGL
Clouds: sky clear below 12,000 feet AGL
Present Weather: automated observation with no human augmentation;
there may or may not be significant weather present at this time
KPZQ 060315Z AUTO 23003KT 10SM CLR 20/16 A3000 RMK AO2 T01980162

Conditions at: KPZQ observed 06 July 2020  02:55 UTC
Temperature: 20.9°C (70°F)
Dewpoint: 16.9°C (62°F) [RH = 78%]
Pressure (altimeter): 29.99 inches Hg (1015.7 mb)
Winds: calm
Visibility: 10 or more miles (16+ km)
Ceiling: at least 12,000 feet AGL
Clouds: sky clear below 12,000 feet AGL
Present Weather: automated observation with no human augmentation;
there may or may not be significant weather present at this time
KPZQ 060255Z AUTO 00000KT 10SM CLR 21/17 A2999 RMK AO2 T02090169

Conditions at: KPZQ observed 06 July 2020  02:36 UTC
Temperature: 21.0°C (70°F)
Dewpoint: 16.6°C (62°F) [RH = 76%]
Pressure (altimeter): 29.99 inches Hg (1015.7 mb)
Winds: calm
Visibility: 10 or more miles (16+ km)
Ceiling: at least 12,000 feet AGL
Clouds: sky clear below 12,000 feet AGL
Present Weather: automated observation with no human augmentation;
there may or may not be significant weather present at this time
KPZQ 060236Z AUTO 00000KT 10SM CLR 21/17 A2999 RMK AO2 T02100166

Conditions at: KPZQ observed 06 July 2020  02:35 UTC
Temperature: 21.2°C (70°F)
Dewpoint: 16.6°C (62°F) [RH = 75%]
Pressure (altimeter): 29.99 inches Hg (1015.7 mb)
Winds: calm
Visibility: 10 or more miles (16+ km)
Ceiling: at least 12,000 feet AGL
Clouds: sky clear below 12,000 feet AGL
Present Weather: automated observation with no human augmentation;
there may or may not be significant weather present at this time
KPZQ 060235Z AUTO 00000KT 10SM CLR 21/17 A2999 RMK AO2 T02120166

Conditions at: KPZQ observed 06 July 2020  02:16 UTC
Temperature: 22.8°C (73°F)
Dewpoint: 16.7°C (62°F) [RH = 68%]
Pressure (altimeter): 29.99 inches Hg (1015.7 mb)
Winds: calm
Visibility: 10 or more miles (16+ km)
Ceiling: at least 12,000 feet AGL
Clouds: sky clear below 12,000 feet AGL
Present Weather: automated observation with no human augmentation;
there may or may not be significant weather present at this time
KPZQ 060216Z AUTO 00000KT 10SM CLR 23/17 A2999 RMK AO2 T02280167

Conditions at: KPZQ observed 06 July 2020  02:15 UTC
Temperature: 23.2°C (74°F)
Dewpoint: 16.8°C (62°F) [RH = 67%]
Pressure (altimeter): 29.99 inches Hg (1015.7 mb)
Winds: calm
Visibility: 10 or more miles (16+ km)
Ceiling: at least 12,000 feet AGL
Clouds: sky clear below 12,000 feet AGL
Present Weather: automated observation with no human augmentation;
there may or may not be significant weather present at this time
KPZQ 060215Z AUTO 00000KT 10SM CLR 23/17 A2999 RMK AO2 T02320168

Conditions at: KPZQ observed 06 July 2020  01:55 UTC
Temperature: 24.1°C (75°F)
Dewpoint: 17.2°C (63°F) [RH = 65%]
Pressure (altimeter): 29.98 inches Hg (1015.3 mb)
Winds: calm
Visibility: 10 or more miles (16+ km)
Ceiling: at least 12,000 feet AGL
Clouds: sky clear below 12,000 feet AGL
Present Weather: automated observation with no human augmentation;
there may or may not be significant weather present at this time
KPZQ 060155Z AUTO 00000KT 10SM CLR 24/17 A2998 RMK AO2 T02410172

Conditions at: KPZQ observed 06 July 2020  01:35 UTC
Temperature: 24.6°C (76°F)
Dewpoint: 17.0°C (63°F) [RH = 63%]
Pressure (altimeter): 29.97 inches Hg (1015.0 mb)
Winds: from the S (170 degrees) at 3 MPH (3 knots; 1.6 m/s)
Visibility: 10 or more miles (16+ km)
Ceiling: at least 12,000 feet AGL
Clouds: sky clear below 12,000 feet AGL
Present Weather: automated observation with no human augmentation;
there may or may not be significant weather present at this time
KPZQ 060135Z AUTO 17003KT 10SM CLR 25/17 A2997 RMK AO2 T02460170

Conditions at: KPZQ observed 06 July 2020  01:15 UTC
Temperature: 25.5°C (78°F)
Dewpoint: 16.7°C (62°F) [RH = 58%]
Pressure (altimeter): 29.97 inches Hg (1015.0 mb)
Winds: calm
Visibility: 10 or more miles (16+ km)
Ceiling: at least 12,000 feet AGL
Clouds: sky clear below 12,000 feet AGL
Present Weather: automated observation with no human augmentation;
there may or may not be significant weather present at this time
KPZQ 060115Z AUTO 00000KT 10SM CLR 26/17 A2997 RMK AO2 T02550167

Conditions at: KPZQ observed 06 July 2020  00:55 UTC
Temperature: 25.5°C (78°F)
Dewpoint: 17.1°C (63°F) [RH = 60%]
Pressure (altimeter): 29.98 inches Hg (1015.3 mb)
Winds: calm
Visibility: 10 or more miles (16+ km)
Ceiling: at least 12,000 feet AGL
Clouds: sky clear below 12,000 feet AGL
Present Weather: automated observation with no human augmentation;
there may or may not be significant weather present at this time
KPZQ 060055Z AUTO 00000KT 10SM CLR 26/17 A2998 RMK AO2 T02550171

Conditions at: KPZQ observed 06 July 2020  00:36 UTC
Temperature: 26.9°C (80°F)
Dewpoint: 15.8°C (60°F) [RH = 51%]
Pressure (altimeter): 29.98 inches Hg (1015.3 mb)
Winds: calm
Visibility: 10 or more miles (16+ km)
Ceiling: at least 12,000 feet AGL
Clouds: sky clear below 12,000 feet AGL
Present Weather: automated observation with no human augmentation;
there may or may not be significant weather present at this time
KPZQ 060036Z AUTO 00000KT 10SM CLR 27/16 A2998 RMK AO2 T02690158

Conditions at: KPZQ observed 06 July 2020  00:35 UTC
Temperature: 26.9°C (80°F)
Dewpoint: 15.8°C (60°F) [RH = 51%]
Pressure (altimeter): 29.98 inches Hg (1015.3 mb)
Winds: calm
Visibility: 10 or more miles (16+ km)
Ceiling: at least 12,000 feet AGL
Clouds: sky clear below 12,000 feet AGL
Present Weather: automated observation with no human augmentation;
there may or may not be significant weather present at this time
KPZQ 060035Z AUTO 00000KT 10SM CLR 27/16 A2998 RMK AO2 T02690158

Conditions at: KPZQ observed 06 July 2020  00:16 UTC
Temperature: 27.5°C (82°F)
Dewpoint: 15.3°C (60°F) [RH = 47%]
Pressure (altimeter): 29.98 inches Hg (1015.3 mb)
Winds: calm
Visibility: 10 or more miles (16+ km)
Ceiling: at least 12,000 feet AGL
Clouds: sky clear below 12,000 feet AGL
Present Weather: automated observation with no human augmentation;
there may or may not be significant weather present at this time
KPZQ 060016Z AUTO 00000KT 10SM CLR 28/15 A2998 RMK AO2 T02750153

Conditions at: KPZQ observed 06 July 2020  00:15 UTC
Temperature: 27.5°C (82°F)
Dewpoint: 15.2°C (59°F) [RH = 47%]
Pressure (altimeter): 29.98 inches Hg (1015.3 mb)
Winds: calm
Visibility: 10 or more miles (16+ km)
Ceiling: at least 12,000 feet AGL
Clouds: sky clear below 12,000 feet AGL
Present Weather: automated observation with no human augmentation;
there may or may not be significant weather present at this time
KPZQ 060015Z AUTO 00000KT 10SM CLR 28/15 A2998 RMK AO2 T02750152

Conditions at: KPZQ observed 05 July 2020  23:55 UTC
Temperature: 28.0°C (82°F)
Dewpoint: 13.8°C (57°F) [RH = 42%]
Pressure (altimeter): 29.98 inches Hg (1015.3 mb)
Winds: from the S (190 degrees) at 6 MPH (5 knots; 2.6 m/s)
Visibility: 10 or more miles (16+ km)
Ceiling: at least 12,000 feet AGL
Clouds: sky clear below 12,000 feet AGL
Present Weather: automated observation with no human augmentation;
there may or may not be significant weather present at this time
KPZQ 052355Z AUTO 19005KT 10SM CLR 28/14 A2998 RMK AO2 T02800138 10290 20257

Conditions at: KPZQ observed 05 July 2020  23:36 UTC
Temperature: 28.2°C (83°F)
Dewpoint: 11.9°C (53°F) [RH = 36%]
Pressure (altimeter): 29.98 inches Hg (1015.3 mb)
Winds: from the S (180 degrees) at 6 MPH (5 knots; 2.6 m/s)
Visibility: 10 or more miles (16+ km)
Ceiling: at least 12,000 feet AGL
Clouds: sky clear below 12,000 feet AGL
Present Weather: automated observation with no human augmentation;
there may or may not be significant weather present at this time
KPZQ 052336Z AUTO 18005KT 10SM CLR 28/12 A2998 RMK AO2 T02820119

Conditions at: KPZQ observed 05 July 2020  23:35 UTC
Temperature: 28.2°C (83°F)
Dewpoint: 12.0°C (54°F) [RH = 37%]
Pressure (altimeter): 29.98 inches Hg (1015.3 mb)
Winds: from the S (170 degrees) at 6 MPH (5 knots; 2.6 m/s)
Visibility: 10 or more miles (16+ km)
Ceiling: at least 12,000 feet AGL
Clouds: sky clear below 12,000 feet AGL
Present Weather: automated observation with no human augmentation;
there may or may not be significant weather present at this time
KPZQ 052335Z AUTO 17005KT 10SM CLR 28/12 A2998 RMK AO2 T02820120

Conditions at: KPZQ observed 05 July 2020  23:15 UTC
Temperature: 28.8°C (84°F)
Dewpoint: 10.3°C (51°F) [RH = 32%]
Pressure (altimeter): 29.99 inches Hg (1015.7 mb)
Winds: from the S (170 degrees) at 3 MPH (3 knots; 1.6 m/s)
Visibility: 10 or more miles (16+ km)
Ceiling: at least 12,000 feet AGL
Clouds: scattered clouds at 7500 feet AGL
Present Weather: automated observation with no human augmentation;
there may or may not be significant weather present at this time
KPZQ 052315Z AUTO 17003KT 10SM SCT075 29/10 A2999 RMK AO2 T02880103

Conditions at: KPZQ observed 05 July 2020  22:55 UTC
Temperature: 28.8°C (84°F)
Dewpoint: 7.5°C (46°F) [RH = 26%]
Pressure (altimeter): 29.99 inches Hg (1015.7 mb)
Winds: calm
Visibility: 10 or more miles (16+ km)
Ceiling: at least 12,000 feet AGL
Clouds: sky clear below 12,000 feet AGL
Present Weather: automated observation with no human augmentation;
there may or may not be significant weather present at this time
KPZQ 052255Z AUTO 00000KT 10SM CLR 29/08 A2999 RMK AO2 T02880075

Conditions at: KPZQ observed 05 July 2020  22:36 UTC
Temperature: 28.7°C (84°F)
Dewpoint: 9.1°C (48°F) [RH = 29%]
Pressure (altimeter): 29.99 inches Hg (1015.7 mb)
Winds: calm
Visibility: 10 or more miles (16+ km)
Ceiling: at least 12,000 feet AGL
Clouds: sky clear below 12,000 feet AGL
Present Weather: automated observation with no human augmentation;
there may or may not be significant weather present at this time
KPZQ 052236Z AUTO 00000KT 10SM CLR 29/09 A2999 RMK AO2 T02870091

Conditions at: KPZQ observed 05 July 2020  22:35 UTC
Temperature: 28.8°C (84°F)
Dewpoint: 9.6°C (49°F) [RH = 30%]
Pressure (altimeter): 29.99 inches Hg (1015.7 mb)
Winds: calm
Visibility: 10 or more miles (16+ km)
Ceiling: at least 12,000 feet AGL
Clouds: sky clear below 12,000 feet AGL
Present Weather: automated observation with no human augmentation;
there may or may not be significant weather present at this time
KPZQ 052235Z AUTO 00000KT 10SM CLR 29/10 A2999 RMK AO2 T02880096

Conditions at: KPZQ observed 05 July 2020  22:15 UTC
Temperature: 28.2°C (83°F)
Dewpoint: 9.8°C (50°F) [RH = 32%]
Pressure (altimeter): 29.98 inches Hg (1015.3 mb)
Winds: from the ENE (70 degrees) at 3 MPH (3 knots; 1.6 m/s)
Visibility: 10 or more miles (16+ km)
Ceiling: at least 12,000 feet AGL
Clouds: sky clear below 12,000 feet AGL
Present Weather: automated observation with no human augmentation;
there may or may not be significant weather present at this time
KPZQ 052215Z AUTO 07003KT 10SM CLR 28/10 A2998 RMK AO2 T02820098

Conditions at: KPZQ observed 05 July 2020  21:55 UTC
Temperature: 27.8°C (82°F)
Dewpoint: 11.9°C (53°F) [RH = 37%]
Pressure (altimeter): 29.98 inches Hg (1015.3 mb)
Winds: calm
Visibility: 7 miles (11 km)
Ceiling: at least 12,000 feet AGL
Clouds: sky clear below 12,000 feet AGL
Present Weather: automated observation with no human augmentation;
there may or may not be significant weather present at this time
KPZQ 052155Z AUTO 00000KT 7SM CLR 28/12 A2998 RMK AO2 T02780119

Conditions at: KPZQ observed 05 July 2020  21:35 UTC
Temperature: 26.9°C (80°F)
Dewpoint: 14.8°C (59°F) [RH = 47%]
Pressure (altimeter): 29.98 inches Hg (1015.3 mb)
Winds: from the NE (50 degrees) at 3 MPH (3 knots; 1.6 m/s)
Visibility: 10 or more miles (16+ km)
Ceiling: at least 12,000 feet AGL
Clouds: sky clear below 12,000 feet AGL
Present Weather: automated observation with no human augmentation;
there may or may not be significant weather present at this time
KPZQ 052135Z AUTO 05003KT 10SM CLR 27/15 A2998 RMK AO2 T02690148

Conditions at: KPZQ observed 05 July 2020  21:15 UTC
Temperature: 26.6°C (80°F)
Dewpoint: 13.2°C (56°F) [RH = 44%]
Pressure (altimeter): 29.99 inches Hg (1015.7 mb)
Winds: from the NNE (20 degrees) at 3 MPH (3 knots; 1.6 m/s)
Visibility: 10 or more miles (16+ km)
Ceiling: at least 12,000 feet AGL
Clouds: sky clear below 12,000 feet AGL
Present Weather: automated observation with no human augmentation;
there may or may not be significant weather present at this time
KPZQ 052115Z AUTO 02003KT 10SM CLR 27/13 A2999 RMK AO2 T02660132

Conditions at: KPZQ observed 05 July 2020  20:55 UTC
Temperature: 26.3°C (79°F)
Dewpoint: 14.3°C (58°F) [RH = 48%]
Pressure (altimeter): 29.99 inches Hg (1015.7 mb)
Winds: calm
Visibility: 10 or more miles (16+ km)
Ceiling: at least 12,000 feet AGL
Clouds: sky clear below 12,000 feet AGL
Present Weather: automated observation with no human augmentation;
there may or may not be significant weather present at this time
KPZQ 052055Z AUTO 00000KT 10SM CLR 26/14 A2999 RMK AO2 T02630143

Conditions at: KPZQ observed 05 July 2020  20:35 UTC
Temperature: 26.2°C (79°F)
Dewpoint: 14.2°C (58°F) [RH = 48%]
Pressure (altimeter): 29.99 inches Hg (1015.7 mb)
Winds: calm
Visibility: 10 or more miles (16+ km)
Ceiling: at least 12,000 feet AGL
Clouds: sky clear below 12,000 feet AGL
Present Weather: automated observation with no human augmentation;
there may or may not be significant weather present at this time
KPZQ 052035Z AUTO 00000KT 10SM CLR 26/14 A2999 RMK AO2 T02620142

Conditions at: KPZQ observed 05 July 2020  20:15 UTC
Temperature: 26.8°C (80°F)
Dewpoint: 14.0°C (57°F) [RH = 45%]
Pressure (altimeter): 30.00 inches Hg (1016.0 mb)
Winds: from the NNE (20 degrees) at 5 MPH (4 knots; 2.1 m/s)
Visibility: 10 or more miles (16+ km)
Ceiling: at least 12,000 feet AGL
Clouds: sky clear below 12,000 feet AGL
Present Weather: automated observation with no human augmentation;
there may or may not be significant weather present at this time
KPZQ 052015Z AUTO 02004KT 10SM CLR 27/14 A3000 RMK AO2 T02680140

Conditions at: KPZQ observed 05 July 2020  19:56 UTC
Temperature: 27.6°C (82°F)
Dewpoint: 15.7°C (60°F) [RH = 48%]
Pressure (altimeter): 30.00 inches Hg (1016.0 mb)
Winds: from the NNE (20 degrees) at 5 MPH (4 knots; 2.1 m/s)
Visibility: 10 or more miles (16+ km)
Ceiling: at least 12,000 feet AGL
Clouds: sky clear below 12,000 feet AGL
Present Weather: automated observation with no human augmentation;
there may or may not be significant weather present at this time
KPZQ 051956Z AUTO 02004KT 10SM CLR 28/16 A3000 RMK AO2 T02760157

Conditions at: KPZQ observed 05 July 2020  19:55 UTC
Temperature: 27.5°C (82°F)
Dewpoint: 15.8°C (60°F) [RH = 49%]
Pressure (altimeter): 30.00 inches Hg (1016.0 mb)
Winds: from the NNE (30 degrees) at 5 MPH (4 knots; 2.1 m/s)
Visibility: 10 or more miles (16+ km)
Ceiling: at least 12,000 feet AGL
Clouds: sky clear below 12,000 feet AGL
Present Weather: automated observation with no human augmentation;
there may or may not be significant weather present at this time
KPZQ 051955Z AUTO 03004KT 10SM CLR 28/16 A3000 RMK AO2 T02750158

Conditions at: KPZQ observed 05 July 2020  19:35 UTC
Temperature: 27.0°C (81°F)
Dewpoint: 15.6°C (60°F) [RH = 50%]
Pressure (altimeter): 29.99 inches Hg (1015.7 mb)
Winds: from the NE (40 degrees) at 5 MPH (4 knots; 2.1 m/s)
Visibility: 10 or more miles (16+ km)
Ceiling: at least 12,000 feet AGL
Clouds: sky clear below 12,000 feet AGL
Present Weather: automated observation with no human augmentation;
there may or may not be significant weather present at this time
KPZQ 051935Z AUTO 04004KT 10SM CLR 27/16 A2999 RMK AO2 T02700156

Conditions at: KPZQ observed 05 July 2020  19:16 UTC
Temperature: 26.0°C (79°F)
Dewpoint: 16.0°C (61°F) [RH = 54%]
Pressure (altimeter): 30.00 inches Hg (1016.0 mb)
Winds: from the NNE (20 degrees) at 6 MPH (5 knots; 2.6 m/s)
Visibility: 10 or more miles (16+ km)
Ceiling: at least 12,000 feet AGL
Clouds: sky clear below 12,000 feet AGL
Present Weather: automated observation with no human augmentation;
there may or may not be significant weather present at this time
KPZQ 051916Z AUTO 02005KT 10SM CLR 26/16 A3000 RMK AO2 T02600160

Conditions at: KPZQ observed 05 July 2020  19:15 UTC
Temperature: 26.0°C (79°F)
Dewpoint: 16.0°C (61°F) [RH = 54%]
Pressure (altimeter): 30.00 inches Hg (1016.0 mb)
Winds: from the NNE (30 degrees) at 6 MPH (5 knots; 2.6 m/s)
Visibility: 10 or more miles (16+ km)
Ceiling: at least 12,000 feet AGL
Clouds: sky clear below 12,000 feet AGL
Present Weather: automated observation with no human augmentation;
there may or may not be significant weather present at this time
KPZQ 051915Z AUTO 03005KT 10SM CLR 26/16 A3000 RMK AO2 T02600160

Conditions at: KPZQ observed 05 July 2020  18:56 UTC
Temperature: 26.3°C (79°F)
Dewpoint: 16.2°C (61°F) [RH = 54%]
Pressure (altimeter): 30.01 inches Hg (1016.3 mb)
Winds: from the NE (50 degrees) at 6 MPH (5 knots; 2.6 m/s)
Visibility: 7 miles (11 km)
Ceiling: at least 12,000 feet AGL
Clouds: sky clear below 12,000 feet AGL
Present Weather: automated observation with no human augmentation;
there may or may not be significant weather present at this time
KPZQ 051856Z AUTO 05005KT 7SM CLR 26/16 A3001 RMK AO2 T02630162

Conditions at: KPZQ observed 05 July 2020  18:55 UTC
Temperature: 26.4°C (80°F)
Dewpoint: 16.4°C (62°F) [RH = 54%]
Pressure (altimeter): 30.01 inches Hg (1016.3 mb)
Winds: from the NE (50 degrees) at 6 MPH (5 knots; 2.6 m/s)
Visibility: 7 miles (11 km)
Ceiling: at least 12,000 feet AGL
Clouds: sky clear below 12,000 feet AGL
Present Weather: automated observation with no human augmentation;
there may or may not be significant weather present at this time
KPZQ 051855Z AUTO 05005KT 7SM CLR 26/16 A3001 RMK AO2 T02640164

Conditions at: KPZQ observed 05 July 2020  18:36 UTC
Temperature: 26.0°C (79°F)
Dewpoint: 16.0°C (61°F) [RH = 54%]
Pressure (altimeter): 30.01 inches Hg (1016.3 mb)
Winds: from the N (10 degrees) at 6 MPH (5 knots; 2.6 m/s)
Visibility: 10 or more miles (16+ km)
Ceiling: at least 12,000 feet AGL
Clouds: sky clear below 12,000 feet AGL
Present Weather: automated observation with no human augmentation;
there may or may not be significant weather present at this time
KPZQ 051836Z AUTO 01005KT 10SM CLR 26/16 A3001 RMK AO2 T02600160

Conditions at: KPZQ observed 05 July 2020  18:35 UTC
Temperature: 26.0°C (79°F)
Dewpoint: 15.9°C (61°F) [RH = 54%]
Pressure (altimeter): 30.01 inches Hg (1016.3 mb)
Winds: from the NNE (20 degrees) at 6 MPH (5 knots; 2.6 m/s)
Visibility: 10 or more miles (16+ km)
Ceiling: at least 12,000 feet AGL
Clouds: sky clear below 12,000 feet AGL
Present Weather: automated observation with no human augmentation;
there may or may not be significant weather present at this time
KPZQ 051835Z AUTO 02005KT 10SM CLR 26/16 A3001 RMK AO2 T02600159

Conditions at: KPZQ observed 05 July 2020  18:16 UTC
Temperature: 25.9°C (79°F)
Dewpoint: 16.5°C (62°F) [RH = 56%]
Pressure (altimeter): 30.02 inches Hg (1016.7 mb)
Winds: from the NNE (30 degrees) at 5 MPH (4 knots; 2.1 m/s)
Visibility: 10 or more miles (16+ km)
Ceiling: at least 12,000 feet AGL
Clouds: sky clear below 12,000 feet AGL
Present Weather: automated observation with no human augmentation;
there may or may not be significant weather present at this time
KPZQ 051816Z AUTO 03004KT 10SM CLR 26/17 A3002 RMK AO2 T02590165

Conditions at: KPZQ observed 05 July 2020  18:15 UTC
Temperature: 25.9°C (79°F)
Dewpoint: 16.6°C (62°F) [RH = 57%]
Pressure (altimeter): 30.02 inches Hg (1016.7 mb)
Winds: from the NNE (30 degrees) at 6 MPH (5 knots; 2.6 m/s)
Visibility: 10 or more miles (16+ km)
Ceiling: at least 12,000 feet AGL
Clouds: sky clear below 12,000 feet AGL
Present Weather: automated observation with no human augmentation;
there may or may not be significant weather present at this time
KPZQ 051815Z AUTO 03005KT 10SM CLR 26/17 A3002 RMK AO2 T02590166

Conditions at: KPZQ observed 05 July 2020  17:55 UTC
Temperature: 25.8°C (78°F)
Dewpoint: 17.0°C (63°F) [RH = 58%]
Pressure (altimeter): 30.02 inches Hg (1016.7 mb)
Winds: from the NNE (30 degrees) at 6 MPH (5 knots; 2.6 m/s)
Visibility: 10 or more miles (16+ km)
Ceiling: at least 12,000 feet AGL
Clouds: sky clear below 12,000 feet AGL
Present Weather: automated observation with no human augmentation;
there may or may not be significant weather present at this time
KPZQ 051755Z AUTO 03005KT 10SM CLR 26/17 A3002 RMK AO2 T02580170 10263 20208

Conditions at: KPZQ observed 05 July 2020  17:36 UTC
Temperature: 25.5°C (78°F)
Dewpoint: 16.2°C (61°F) [RH = 56%]
Pressure (altimeter): 30.02 inches Hg (1016.7 mb)
Winds: from the N (10 degrees) at 5 MPH (4 knots; 2.1 m/s)
Visibility: 10 or more miles (16+ km)
Ceiling: at least 12,000 feet AGL
Clouds: sky clear below 12,000 feet AGL
Present Weather: automated observation with no human augmentation;
there may or may not be significant weather present at this time
KPZQ 051736Z AUTO 01004KT 10SM CLR 26/16 A3002 RMK AO2 T02550162

Conditions at: KPZQ observed 05 July 2020  17:35 UTC
Temperature: 25.6°C (78°F)
Dewpoint: 16.3°C (61°F) [RH = 56%]
Pressure (altimeter): 30.02 inches Hg (1016.7 mb)
Winds: from the N (10 degrees) at 5 MPH (4 knots; 2.1 m/s)
Visibility: 10 or more miles (16+ km)
Ceiling: at least 12,000 feet AGL
Clouds: sky clear below 12,000 feet AGL
Present Weather: automated observation with no human augmentation;
there may or may not be significant weather present at this time
KPZQ 051735Z AUTO 01004KT 10SM CLR 26/16 A3002 RMK AO2 T02560163

Conditions at: KPZQ observed 05 July 2020  17:15 UTC
Temperature: 25.3°C (78°F)
Dewpoint: 16.2°C (61°F) [RH = 57%]
Pressure (altimeter): 30.02 inches Hg (1016.7 mb)
Winds: from the NNE (20 degrees) at 3 MPH (3 knots; 1.6 m/s)
Visibility: 10 or more miles (16+ km)
Ceiling: at least 12,000 feet AGL
Clouds: sky clear below 12,000 feet AGL
Present Weather: automated observation with no human augmentation;
there may or may not be significant weather present at this time
KPZQ 051715Z AUTO 02003KT 10SM CLR 25/16 A3002 RMK AO2 T02530162

Conditions at: KPZQ observed 05 July 2020  16:55 UTC
Temperature: 26.1°C (79°F)
Dewpoint: 16.4°C (62°F) [RH = 55%]
Pressure (altimeter): 30.02 inches Hg (1016.7 mb)
Winds: from the NNE (30 degrees) at 6 MPH (5 knots; 2.6 m/s)
Visibility: 10 or more miles (16+ km)
Ceiling: at least 12,000 feet AGL
Clouds: sky clear below 12,000 feet AGL
Present Weather: automated observation with no human augmentation;
there may or may not be significant weather present at this time
KPZQ 051655Z AUTO 03005KT 10SM CLR 26/16 A3002 RMK AO2 T02610164

Conditions at: KPZQ observed 05 July 2020  16:35 UTC
Temperature: 25.4°C (78°F)
Dewpoint: 16.3°C (61°F) [RH = 57%]
Pressure (altimeter): 30.02 inches Hg (1016.7 mb)
Winds: from the N (10 degrees) at 3 MPH (3 knots; 1.6 m/s)
Visibility: 10 or more miles (16+ km)
Ceiling: at least 12,000 feet AGL
Clouds: sky clear below 12,000 feet AGL
Present Weather: automated observation with no human augmentation;
there may or may not be significant weather present at this time
KPZQ 051635Z AUTO 01003KT 10SM CLR 25/16 A3002 RMK AO2 T02540163

Conditions at: KPZQ observed 05 July 2020  16:15 UTC
Temperature: 25.5°C (78°F)
Dewpoint: 16.3°C (61°F) [RH = 57%]
Pressure (altimeter): 30.02 inches Hg (1016.7 mb)
Winds: from the N (10 degrees) at 5 MPH (4 knots; 2.1 m/s)
Visibility: 10 or more miles (16+ km)
Ceiling: at least 12,000 feet AGL
Clouds: sky clear below 12,000 feet AGL
Present Weather: automated observation with no human augmentation;
there may or may not be significant weather present at this time
KPZQ 051615Z AUTO 01004KT 10SM CLR 26/16 A3002 RMK AO2 T02550163

Conditions at: KPZQ observed 05 July 2020  15:55 UTC
Temperature: 26.0°C (79°F)
Dewpoint: 16.1°C (61°F) [RH = 54%]
Pressure (altimeter): 30.02 inches Hg (1016.7 mb)
Winds: from the N (10 degrees) at 3 MPH (3 knots; 1.6 m/s)
Visibility: 10 or more miles (16+ km)
Ceiling: at least 12,000 feet AGL
Clouds: sky clear below 12,000 feet AGL
Present Weather: automated observation with no human augmentation;
there may or may not be significant weather present at this time
KPZQ 051555Z AUTO 01003KT 10SM CLR 26/16 A3002 RMK AO2 T02600161

Conditions at: KPZQ observed 05 July 2020  15:35 UTC
Temperature: 25.8°C (78°F)
Dewpoint: 16.1°C (61°F) [RH = 55%]
Pressure (altimeter): 30.03 inches Hg (1017.0 mb)
Winds: from the NNE (30 degrees) at 6 MPH (5 knots; 2.6 m/s)
Visibility: 10 or more miles (16+ km)
Ceiling: at least 12,000 feet AGL
Clouds: sky clear below 12,000 feet AGL
Present Weather: automated observation with no human augmentation;
there may or may not be significant weather present at this time
KPZQ 051535Z AUTO 03005KT 10SM CLR 26/16 A3003 RMK AO2 T02580161

Conditions at: KPZQ observed 05 July 2020  15:15 UTC
Temperature: 25.6°C (78°F)
Dewpoint: 15.0°C (59°F) [RH = 52%]
Pressure (altimeter): 30.02 inches Hg (1016.7 mb)
Winds: from the N (350 degrees) at 6 MPH (5 knots; 2.6 m/s)
Visibility: 10 or more miles (16+ km)
Ceiling: at least 12,000 feet AGL
Clouds: sky clear below 12,000 feet AGL
Present Weather: automated observation with no human augmentation;
there may or may not be significant weather present at this time
KPZQ 051515Z AUTO 35005KT 10SM CLR 26/15 A3002 RMK AO2 T02560150

Conditions at: KPZQ observed 05 July 2020  14:55 UTC
Temperature: 25.2°C (77°F)
Dewpoint: 15.4°C (60°F) [RH = 55%]
Pressure (altimeter): 30.03 inches Hg (1017.0 mb)
Winds: from the N (350 degrees) at 6 MPH (5 knots; 2.6 m/s)
Visibility: 10 or more miles (16+ km)
Ceiling: at least 12,000 feet AGL
Clouds: sky clear below 12,000 feet AGL
Present Weather: automated observation with no human augmentation;
there may or may not be significant weather present at this time
KPZQ 051455Z AUTO 35005KT 10SM CLR 25/15 A3003 RMK AO2 T02520154

Conditions at: KPZQ observed 05 July 2020  14:36 UTC
Temperature: 25.1°C (77°F)
Dewpoint: 15.5°C (60°F) [RH = 55%]
Pressure (altimeter): 30.03 inches Hg (1017.0 mb)
Winds: from the N (350 degrees) at 6 MPH (5 knots; 2.6 m/s)
Visibility: 10 or more miles (16+ km)
Ceiling: at least 12,000 feet AGL
Clouds: sky clear below 12,000 feet AGL
Present Weather: automated observation with no human augmentation;
there may or may not be significant weather present at this time
KPZQ 051436Z AUTO 35005KT 10SM CLR 25/16 A3003 RMK AO2 T02510155

Conditions at: KPZQ observed 05 July 2020  14:35 UTC
Temperature: 25.1°C (77°F)
Dewpoint: 15.4°C (60°F) [RH = 55%]
Pressure (altimeter): 30.03 inches Hg (1017.0 mb)
Winds: from the N (360 degrees) at 6 MPH (5 knots; 2.6 m/s)
Visibility: 10 or more miles (16+ km)
Ceiling: at least 12,000 feet AGL
Clouds: sky clear below 12,000 feet AGL
Present Weather: automated observation with no human augmentation;
there may or may not be significant weather present at this time
KPZQ 051435Z AUTO 36005KT 10SM CLR 25/15 A3003 RMK AO2 T02510154

Conditions at: KPZQ observed 05 July 2020  14:15 UTC
Temperature: 24.7°C (76°F)
Dewpoint: 15.4°C (60°F) [RH = 56%]
Pressure (altimeter): 30.03 inches Hg (1017.0 mb)
Winds: from the N (350 degrees) at 5 MPH (4 knots; 2.1 m/s)
Visibility: 10 or more miles (16+ km)
Ceiling: at least 12,000 feet AGL
Clouds: sky clear below 12,000 feet AGL
Present Weather: automated observation with no human augmentation;
there may or may not be significant weather present at this time
KPZQ 051415Z AUTO 35004KT 10SM CLR 25/15 A3003 RMK AO2 T02470154

Conditions at: KPZQ observed 05 July 2020  13:56 UTC
Temperature: 25.0°C (77°F)
Dewpoint: 14.9°C (59°F) [RH = 53%]
Pressure (altimeter): 30.03 inches Hg (1017.0 mb)
Winds: from the W (270 degrees) at 3 MPH (3 knots; 1.6 m/s)
Visibility: 10 or more miles (16+ km)
Ceiling: at least 12,000 feet AGL
Clouds: sky clear below 12,000 feet AGL
Present Weather: automated observation with no human augmentation;
there may or may not be significant weather present at this time
KPZQ 051356Z AUTO 27003KT 10SM CLR 25/15 A3003 RMK AO2 T02500149

Conditions at: KPZQ observed 05 July 2020  13:55 UTC
Temperature: 24.9°C (77°F)
Dewpoint: 14.8°C (59°F) [RH = 53%]
Pressure (altimeter): 30.03 inches Hg (1017.0 mb)
Winds: from the W (280 degrees) at 3 MPH (3 knots; 1.6 m/s)
Visibility: 10 or more miles (16+ km)
Ceiling: at least 12,000 feet AGL
Clouds: sky clear below 12,000 feet AGL
Present Weather: automated observation with no human augmentation;
there may or may not be significant weather present at this time
KPZQ 051355Z AUTO 28003KT 10SM CLR 25/15 A3003 RMK AO2 T02490148

Conditions at: KPZQ observed 05 July 2020  13:35 UTC
Temperature: 24.2°C (76°F)
Dewpoint: 13.9°C (57°F) [RH = 53%]
Pressure (altimeter): 30.03 inches Hg (1017.0 mb)
Winds: from the WNW (290 degrees) at 3 MPH (3 knots; 1.6 m/s)
Visibility: 10 or more miles (16+ km)
Ceiling: at least 12,000 feet AGL
Clouds: sky clear below 12,000 feet AGL
Present Weather: automated observation with no human augmentation;
there may or may not be significant weather present at this time
KPZQ 051335Z AUTO 29003KT 10SM CLR 24/14 A3003 RMK AO2 T02420139

Conditions at: KPZQ observed 05 July 2020  13:16 UTC
Temperature: 23.6°C (74°F)
Dewpoint: 13.3°C (56°F) [RH = 52%]
Pressure (altimeter): 30.03 inches Hg (1017.0 mb)
Winds: calm
Visibility: 10 or more miles (16+ km)
Ceiling: at least 12,000 feet AGL
Clouds: sky clear below 12,000 feet AGL
Present Weather: automated observation with no human augmentation;
there may or may not be significant weather present at this time
KPZQ 051316Z AUTO 00000KT 10SM CLR 24/13 A3003 RMK AO2 T02360133

Conditions at: KPZQ observed 05 July 2020  13:15 UTC
Temperature: 23.5°C (74°F)
Dewpoint: 13.2°C (56°F) [RH = 52%]
Pressure (altimeter): 30.03 inches Hg (1017.0 mb)
Winds: calm
Visibility: 10 or more miles (16+ km)
Ceiling: at least 12,000 feet AGL
Clouds: sky clear below 12,000 feet AGL
Present Weather: automated observation with no human augmentation;
there may or may not be significant weather present at this time
KPZQ 051315Z AUTO 00000KT 10SM CLR 24/13 A3003 RMK AO2 T02350132

Conditions at: KPZQ observed 05 July 2020  12:56 UTC
Temperature: 23.1°C (74°F)
Dewpoint: 12.0°C (54°F) [RH = 50%]
Pressure (altimeter): 30.03 inches Hg (1017.0 mb)
Winds: calm
Visibility: 10 or more miles (16+ km)
Ceiling: at least 12,000 feet AGL
Clouds: sky clear below 12,000 feet AGL
Present Weather: automated observation with no human augmentation;
there may or may not be significant weather present at this time
KPZQ 051256Z AUTO 00000KT 10SM CLR 23/12 A3003 RMK AO2 T02310120

Conditions at: KPZQ observed 05 July 2020  12:55 UTC
Temperature: 23.1°C (74°F)
Dewpoint: 12.0°C (54°F) [RH = 50%]
Pressure (altimeter): 30.03 inches Hg (1017.0 mb)
Winds: from the W (260 degrees) at 3 MPH (3 knots; 1.6 m/s)
Visibility: 10 or more miles (16+ km)
Ceiling: at least 12,000 feet AGL
Clouds: sky clear below 12,000 feet AGL
Present Weather: automated observation with no human augmentation;
there may or may not be significant weather present at this time
KPZQ 051255Z AUTO 26003KT 10SM CLR 23/12 A3003 RMK AO2 T02310120

Conditions at: KPZQ observed 05 July 2020  12:35 UTC
Temperature: 22.3°C (72°F)
Dewpoint: 11.0°C (52°F) [RH = 49%]
Pressure (altimeter): 30.03 inches Hg (1017.0 mb)
Winds: from the WSW (250 degrees) at 3 MPH (3 knots; 1.6 m/s)
Visibility: 10 or more miles (16+ km)
Ceiling: at least 12,000 feet AGL
Clouds: sky clear below 12,000 feet AGL
Present Weather: automated observation with no human augmentation;
there may or may not be significant weather present at this time
KPZQ 051235Z AUTO 25003KT 10SM CLR 22/11 A3003 RMK AO2 T02230110

Conditions at: KPZQ observed 05 July 2020  12:16 UTC
Temperature: 21.2°C (70°F)
Dewpoint: 10.6°C (51°F) [RH = 51%]
Pressure (altimeter): 30.03 inches Hg (1017.0 mb)
Winds: calm
Visibility: 10 or more miles (16+ km)
Ceiling: at least 12,000 feet AGL
Clouds: sky clear below 12,000 feet AGL
Present Weather: automated observation with no human augmentation;
there may or may not be significant weather present at this time
KPZQ 051216Z AUTO 00000KT 10SM CLR 21/11 A3003 RMK AO2 T02120106

Conditions at: KPZQ observed 05 July 2020  12:15 UTC
Temperature: 21.2°C (70°F)
Dewpoint: 10.6°C (51°F) [RH = 51%]
Pressure (altimeter): 30.03 inches Hg (1017.0 mb)
Winds: calm
Visibility: 10 or more miles (16+ km)
Ceiling: at least 12,000 feet AGL
Clouds: sky clear below 12,000 feet AGL
Present Weather: automated observation with no human augmentation;
there may or may not be significant weather present at this time
KPZQ 051215Z AUTO 00000KT 10SM CLR 21/11 A3003 RMK AO2 T02120106

Conditions at: KPZQ observed 05 July 2020  11:56 UTC
Temperature: 20.9°C (70°F)
Dewpoint: 10.4°C (51°F) [RH = 51%]
Pressure (altimeter): 30.03 inches Hg (1017.0 mb)
Winds: from the WNW (300 degrees) at 3 MPH (3 knots; 1.6 m/s)
Visibility: 10 or more miles (16+ km)
Ceiling: at least 12,000 feet AGL
Clouds: sky clear below 12,000 feet AGL
Present Weather: automated observation with no human augmentation;
there may or may not be significant weather present at this time
KPZQ 051156Z AUTO 30003KT 10SM CLR 21/10 A3003 RMK AO2 T02090104 10209 20183

Conditions at: KPZQ observed 05 July 2020  11:55 UTC
Temperature: 20.8°C (69°F)
Dewpoint: 10.5°C (51°F) [RH = 52%]
Pressure (altimeter): 30.03 inches Hg (1017.0 mb)
Winds: from the WNW (300 degrees) at 3 MPH (3 knots; 1.6 m/s)
Visibility: 10 or more miles (16+ km)
Ceiling: at least 12,000 feet AGL
Clouds: sky clear below 12,000 feet AGL
Present Weather: automated observation with no human augmentation;
there may or may not be significant weather present at this time
KPZQ 051155Z AUTO 30003KT 10SM CLR 21/11 A3003 RMK AO2 T02080105 10208 20183

Conditions at: KPZQ observed 05 July 2020  11:36 UTC
Temperature: 20.1°C (68°F)
Dewpoint: 11.4°C (53°F) [RH = 57%]
Pressure (altimeter): 30.02 inches Hg (1016.7 mb)
Winds: calm
Visibility: 10 or more miles (16+ km)
Ceiling: at least 12,000 feet AGL
Clouds: sky clear below 12,000 feet AGL
Present Weather: automated observation with no human augmentation;
there may or may not be significant weather present at this time
KPZQ 051136Z AUTO 00000KT 10SM CLR 20/11 A3002 RMK AO2 T02010114

Conditions at: KPZQ observed 05 July 2020  11:35 UTC
Temperature: 20.1°C (68°F)
Dewpoint: 11.0°C (52°F) [RH = 56%]
Pressure (altimeter): 30.02 inches Hg (1016.7 mb)
Winds: calm
Visibility: 10 or more miles (16+ km)
Ceiling: at least 12,000 feet AGL
Clouds: sky clear below 12,000 feet AGL
Present Weather: automated observation with no human augmentation;
there may or may not be significant weather present at this time
KPZQ 051135Z AUTO 00000KT 10SM CLR 20/11 A3002 RMK AO2 T02010110

Conditions at: KPZQ observed 05 July 2020  11:16 UTC
Temperature: 18.8°C (66°F)
Dewpoint: 9.6°C (49°F) [RH = 55%]
Pressure (altimeter): 30.02 inches Hg (1016.7 mb)
Winds: calm
Visibility: 10 or more miles (16+ km)
Ceiling: at least 12,000 feet AGL
Clouds: sky clear below 12,000 feet AGL
Present Weather: automated observation with no human augmentation;
there may or may not be significant weather present at this time
KPZQ 051116Z AUTO 00000KT 10SM CLR 19/10 A3002 RMK AO2 T01880096

Conditions at: KPZQ observed 05 July 2020  11:15 UTC
Temperature: 18.7°C (66°F)
Dewpoint: 9.6°C (49°F) [RH = 55%]
Pressure (altimeter): 30.02 inches Hg (1016.7 mb)
Winds: calm
Visibility: 10 or more miles (16+ km)
Ceiling: at least 12,000 feet AGL
Clouds: sky clear below 12,000 feet AGL
Present Weather: automated observation with no human augmentation;
there may or may not be significant weather present at this time
KPZQ 051115Z AUTO 00000KT 10SM CLR 19/10 A3002 RMK AO2 T01870096